createdAt,value
2022-11-08T00:00:47.557Z,94202.72
2022-11-08T00:01:44.161Z,94200.72
2022-11-08T00:02:40.848Z,94203.16
2022-11-08T00:03:37.425Z,94197.59
2022-11-08T00:04:34.789Z,94198.53
2022-11-08T00:05:49.895Z,94196.81
2022-11-08T00:07:05.696Z,94195.66
2022-11-08T00:08:21.745Z,94202.09
2022-11-08T00:09:36.767Z,94197.91
2022-11-08T00:10:51.890Z,94203.03
2022-11-08T00:12:06.951Z,94194.78
2022-11-08T00:13:24.807Z,94195.56
2022-11-08T00:14:21.232Z,94198.47
2022-11-08T00:15:17.783Z,94192.56
2022-11-08T00:16:14.241Z,94194.88
2022-11-08T00:17:10.801Z,94191.63
2022-11-08T00:18:07.552Z,94198.50
2022-11-08T00:19:04.035Z,94197.28
2022-11-08T00:20:00.602Z,94197.94
2022-11-08T00:21:00.811Z,94198.75
2022-11-08T00:21:57.320Z,94191.63
2022-11-08T00:22:53.876Z,94195.66
2022-11-08T00:23:50.372Z,94202.81
2022-11-08T00:24:47.161Z,94199.41
2022-11-08T00:25:43.604Z,94193.81
2022-11-08T00:26:40.096Z,94194.34
2022-11-08T00:27:36.585Z,94196.78
2022-11-08T00:28:33.081Z,94193.53
2022-11-08T00:29:29.702Z,94194.66
2022-11-08T00:30:26.237Z,94192.22
2022-11-08T00:31:22.694Z,94191.09
2022-11-08T00:32:23.507Z,94185.97
2022-11-08T00:33:19.994Z,94191.19
2022-11-08T00:34:16.494Z,94188.41
2022-11-08T00:35:13.745Z,94193.91
2022-11-08T00:36:10.297Z,94190.50
2022-11-08T00:37:06.803Z,94190.13
2022-11-08T00:38:04.250Z,94189.03
2022-11-08T00:39:00.718Z,94193.28
2022-11-08T00:39:57.188Z,94190.41
2022-11-08T00:40:53.683Z,94190.44
2022-11-08T00:41:50.167Z,94188.81
2022-11-08T00:42:46.674Z,94189.31
2022-11-08T00:43:43.174Z,94189.34
2022-11-08T00:44:39.685Z,94185.38
2022-11-08T00:45:36.122Z,94187.09
2022-11-08T00:46:32.567Z,94186.69
2022-11-08T00:47:29.056Z,94183.94
2022-11-08T00:48:25.571Z,94189.09
2022-11-08T00:49:22.244Z,94184.75
2022-11-08T00:50:18.682Z,94182.66
2022-11-08T00:51:15.133Z,94189.31
2022-11-08T00:52:11.662Z,94185.72
2022-11-08T00:53:08.178Z,94179.56
2022-11-08T00:54:05.554Z,94181.78
2022-11-08T00:55:02.055Z,94182.13
2022-11-08T00:56:02.508Z,94182.94
2022-11-08T00:56:59.031Z,94176.53
2022-11-08T00:58:00.006Z,94181.34
2022-11-08T00:58:57.788Z,94188.50
2022-11-08T00:59:54.236Z,94184.44
2022-11-08T01:00:50.718Z,94183.09
2022-11-08T01:01:47.668Z,94180.09
2022-11-08T01:02:44.243Z,94183.31
2022-11-08T01:03:40.831Z,94182.41
2022-11-08T01:04:37.300Z,94177.38
2022-11-08T01:05:36.551Z,94177.47
2022-11-08T01:06:32.999Z,94181.34
2022-11-08T01:07:29.462Z,94178.91
2022-11-08T01:08:25.976Z,94177.94
2022-11-08T01:09:22.485Z,94175.63
2022-11-08T01:10:18.942Z,94180.84
2022-11-08T01:11:17.066Z,94174.84
2022-11-08T01:12:13.510Z,94178.50
2022-11-08T01:13:10.097Z,94169.06
2022-11-08T01:14:06.740Z,94171.41
2022-11-08T01:15:03.316Z,94172.50
2022-11-08T01:16:05.486Z,94043.66
2022-11-08T01:17:01.922Z,94167.59
2022-11-08T01:17:58.374Z,94170.50
2022-11-08T01:18:55.495Z,94173.91
2022-11-08T01:19:51.957Z,94169.91
2022-11-08T01:20:49.140Z,94165.09
2022-11-08T01:21:45.758Z,94167.94
2022-11-08T01:22:42.942Z,94163.38
2022-11-08T01:23:39.694Z,94167.16
2022-11-08T01:24:36.190Z,94172.38
2022-11-08T01:25:35.426Z,94171.38
2022-11-08T01:26:31.930Z,94169.41
2022-11-08T01:27:28.358Z,94175.50
2022-11-08T01:28:24.861Z,94173.41
2022-11-08T01:29:21.320Z,94176.97
2022-11-08T01:30:17.851Z,94175.34
2022-11-08T01:31:19.046Z,94174.94
2022-11-08T01:32:15.510Z,94177.19
2022-11-08T01:33:12.408Z,94172.63
2022-11-08T01:34:08.880Z,94170.97
2022-11-08T01:35:05.746Z,94177.38
2022-11-08T01:36:02.204Z,94181.38
2022-11-08T01:36:58.779Z,94192.00
2022-11-08T01:37:55.212Z,94183.81
2022-11-08T01:38:52.101Z,94187.38
2022-11-08T01:39:48.564Z,94181.03
2022-11-08T01:40:46.426Z,94181.91
2022-11-08T01:41:42.893Z,94183.38
2022-11-08T01:42:39.721Z,94184.38
2022-11-08T01:43:46.514Z,94186.22
2022-11-08T01:44:57.406Z,94186.41
2022-11-08T01:46:16.414Z,94184.34
2022-11-08T01:47:12.933Z,94181.88
2022-11-08T01:48:09.955Z,94178.63
2022-11-08T01:49:06.443Z,94178.72
2022-11-08T01:50:08.770Z,94183.47
2022-11-08T01:51:07.007Z,94175.03
2022-11-08T01:52:21.202Z,94186.63
2022-11-08T01:53:17.722Z,94178.78
2022-11-08T01:54:17.739Z,94177.22
2022-11-08T01:55:18.679Z,94179.78
2022-11-08T01:56:15.504Z,94174.47
2022-11-08T01:57:14.837Z,94171.66
2022-11-08T01:58:15.014Z,94168.97
2022-11-08T01:59:12.584Z,94169.34
2022-11-08T02:00:10.381Z,94171.66
2022-11-08T02:01:07.004Z,94171.34
2022-11-08T02:02:04.457Z,94175.03
2022-11-08T02:03:01.706Z,94167.25
2022-11-08T02:03:58.546Z,94176.44
2022-11-08T02:04:55.227Z,94170.34
2022-11-08T02:05:51.747Z,94168.66
2022-11-08T02:06:48.659Z,94195.97
2022-11-08T02:07:45.163Z,94168.09
2022-11-08T02:08:42.627Z,94167.50
2022-11-08T02:09:40.130Z,94168.59
2022-11-08T02:10:38.038Z,94166.25
2022-11-08T02:11:34.752Z,94180.25
2022-11-08T02:12:31.222Z,94179.56
2022-11-08T02:13:28.734Z,94171.59
2022-11-08T02:14:25.158Z,94174.59
2022-11-08T02:15:22.898Z,94168.03
2022-11-08T02:16:19.352Z,94174.25
2022-11-08T02:17:16.113Z,94176.28
2022-11-08T02:18:13.300Z,94175.81
2022-11-08T02:19:11.548Z,94178.28
2022-11-08T02:20:08.214Z,94177.63
2022-11-08T02:21:14.769Z,94179.84
2022-11-08T02:22:24.830Z,94175.19
2022-11-08T02:23:26.903Z,94176.75
2022-11-08T02:24:23.474Z,94178.75
2022-11-08T02:25:20.007Z,94174.78
2022-11-08T02:26:17.873Z,94177.13
2022-11-08T02:27:14.837Z,94179.13
2022-11-08T02:28:11.298Z,94178.78
2022-11-08T02:29:28.257Z,94177.56
2022-11-08T02:30:24.778Z,94175.25
2022-11-08T02:31:21.498Z,94173.69
2022-11-08T02:32:18.029Z,94174.78
2022-11-08T02:33:21.807Z,94175.09
2022-11-08T02:34:18.782Z,94169.34
2022-11-08T02:35:17.442Z,94170.56
2022-11-08T02:36:15.682Z,94174.09
2022-11-08T02:37:14.682Z,94173.63
2022-11-08T02:38:11.177Z,94178.63
2022-11-08T02:39:08.485Z,94188.50
2022-11-08T02:40:05.740Z,94171.28
2022-11-08T02:41:02.181Z,94181.50
2022-11-08T02:41:58.866Z,94175.69
2022-11-08T02:42:55.374Z,94179.16
2022-11-08T02:43:51.817Z,94171.59
2022-11-08T02:44:48.742Z,94170.38
2022-11-08T02:45:45.448Z,94169.47
2022-11-08T02:46:41.933Z,94175.91
2022-11-08T02:47:38.391Z,94106.41
2022-11-08T02:48:34.947Z,94174.66
2022-11-08T02:49:31.642Z,94182.31
2022-11-08T02:50:28.078Z,94175.13
2022-11-08T02:51:24.525Z,94181.53
2022-11-08T02:52:20.997Z,94178.88
2022-11-08T02:53:17.692Z,94177.00
2022-11-08T02:54:14.169Z,94170.09
2022-11-08T02:55:10.716Z,94174.25
2022-11-08T02:56:07.295Z,94176.16
2022-11-08T02:57:03.736Z,94175.38
2022-11-08T02:58:00.557Z,94172.38
2022-11-08T02:58:57.246Z,94175.19
2022-11-08T02:59:53.713Z,94174.25
2022-11-08T03:00:50.212Z,94175.69
2022-11-08T03:01:46.837Z,94176.59
2022-11-08T03:02:43.441Z,94182.81
2022-11-08T03:03:39.936Z,94181.28
2022-11-08T03:04:36.494Z,94181.59
2022-11-08T03:05:33.454Z,94176.28
2022-11-08T03:06:29.962Z,94177.84
2022-11-08T03:07:26.469Z,94186.25
2022-11-08T03:08:22.960Z,94184.06
2022-11-08T03:09:19.422Z,94184.38
2022-11-08T03:10:16.181Z,94179.84
2022-11-08T03:11:12.744Z,94178.28
2022-11-08T03:12:09.205Z,94189.59
2022-11-08T03:13:06.212Z,94183.81
2022-11-08T03:14:02.803Z,94183.47
2022-11-08T03:14:59.278Z,94186.13
2022-11-08T03:15:55.753Z,94177.19
2022-11-08T03:16:52.227Z,94181.72
2022-11-08T03:17:48.719Z,94180.06
2022-11-08T03:18:45.252Z,94181.00
2022-11-08T03:19:41.756Z,94181.41
2022-11-08T03:20:38.302Z,94174.66
2022-11-08T03:21:36.530Z,94179.63
2022-11-08T03:22:32.995Z,94178.28
2022-11-08T03:23:29.504Z,94185.22
2022-11-08T03:24:26.051Z,94180.88
2022-11-08T03:25:22.525Z,94187.00
2022-11-08T03:26:18.987Z,94185.88
2022-11-08T03:27:15.460Z,94184.44
2022-11-08T03:28:12.028Z,94182.56
2022-11-08T03:29:08.535Z,94181.66
2022-11-08T03:30:06.293Z,94180.69
2022-11-08T03:31:02.740Z,94182.44
2022-11-08T03:31:59.246Z,94174.78
2022-11-08T03:32:55.761Z,94176.66
2022-11-08T03:33:52.224Z,94180.09
2022-11-08T03:34:48.731Z,94178.47
2022-11-08T03:35:45.208Z,94178.47
2022-11-08T03:36:41.699Z,94175.94
2022-11-08T03:37:38.157Z,94179.38
2022-11-08T03:38:34.687Z,94176.91
2022-11-08T03:39:31.208Z,94179.56
2022-11-08T03:40:27.754Z,94177.81
2022-11-08T03:41:24.220Z,94182.16
2022-11-08T03:42:20.694Z,94181.38
2022-11-08T03:43:17.178Z,94177.91
2022-11-08T03:44:13.899Z,94176.72
2022-11-08T03:45:11.369Z,94173.91
2022-11-08T03:46:07.821Z,94173.16
2022-11-08T03:47:04.361Z,94175.81
2022-11-08T03:48:00.974Z,94167.94
2022-11-08T03:48:57.437Z,94172.94
2022-11-08T03:49:53.953Z,94176.97
2022-11-08T03:50:51.851Z,94182.88
2022-11-08T03:51:48.381Z,94178.34
2022-11-08T03:52:52.294Z,94185.56
2022-11-08T03:53:48.831Z,94179.06
2022-11-08T03:54:45.322Z,94175.16
2022-11-08T03:55:41.793Z,94181.72
2022-11-08T03:56:38.277Z,94180.38
2022-11-08T03:57:34.719Z,94179.25
2022-11-08T03:58:31.190Z,94185.91
2022-11-08T03:59:27.700Z,94188.09
2022-11-08T04:00:26.003Z,94194.88
2022-11-08T04:01:22.501Z,94189.28
2022-11-08T04:02:19.132Z,94191.22
2022-11-08T04:03:15.714Z,94189.34
2022-11-08T04:04:12.299Z,94192.72
2022-11-08T04:05:09.689Z,94196.19
2022-11-08T04:06:06.364Z,94189.53
2022-11-08T04:07:02.870Z,94187.47
2022-11-08T04:08:00.685Z,94181.94
2022-11-08T04:08:57.224Z,94186.75
2022-11-08T04:09:53.708Z,94192.38
2022-11-08T04:10:50.183Z,94187.06
2022-11-08T04:12:05.054Z,94183.66
2022-11-08T04:13:20.072Z,94188.50
2022-11-08T04:14:35.208Z,94191.97
2022-11-08T04:15:31.854Z,94185.91
2022-11-08T04:16:29.857Z,94186.59
2022-11-08T04:17:46.315Z,94185.34
2022-11-08T04:19:01.574Z,94188.00
2022-11-08T04:20:16.593Z,94178.13
2022-11-08T04:21:22.414Z,94184.41
2022-11-08T04:22:18.891Z,94183.28
2022-11-08T04:23:16.471Z,94176.97
2022-11-08T04:24:13.193Z,94179.63
2022-11-08T04:25:09.818Z,94186.25
2022-11-08T04:26:07.835Z,94187.47
2022-11-08T04:27:04.326Z,94184.50
2022-11-08T04:28:00.769Z,94191.50
2022-11-08T04:29:01.160Z,94185.75
2022-11-08T04:29:57.605Z,94185.47
2022-11-08T04:30:58.294Z,94181.47
2022-11-08T04:31:54.755Z,94185.31
2022-11-08T04:32:51.196Z,94184.91
2022-11-08T04:33:47.658Z,94184.19
2022-11-08T04:34:44.104Z,94179.19
2022-11-08T04:35:40.556Z,94172.00
2022-11-08T04:36:37.022Z,94181.03
2022-11-08T04:37:33.471Z,94182.25
2022-11-08T04:38:30.860Z,94180.16
2022-11-08T04:39:27.290Z,94182.06
2022-11-08T04:40:23.731Z,94186.59
2022-11-08T04:41:24.178Z,94189.03
2022-11-08T04:42:20.701Z,94192.59
2022-11-08T04:43:17.162Z,94187.88
2022-11-08T04:44:15.585Z,94188.78
2022-11-08T04:45:12.079Z,94188.22
2022-11-08T04:46:09.963Z,94192.00
2022-11-08T04:47:06.533Z,94194.56
2022-11-08T04:48:03.039Z,94190.72
2022-11-08T04:49:00.017Z,94195.59
2022-11-08T04:49:56.477Z,94189.72
2022-11-08T04:50:52.975Z,94188.56
2022-11-08T04:51:49.457Z,94182.41
2022-11-08T04:52:51.563Z,94187.72
2022-11-08T04:53:48.023Z,94188.84
2022-11-08T04:54:45.458Z,94183.50
2022-11-08T04:55:41.894Z,94182.41
2022-11-08T04:56:38.369Z,94185.53
2022-11-08T04:57:35.043Z,94186.31
2022-11-08T04:58:35.267Z,94187.03
2022-11-08T04:59:31.754Z,94187.03
2022-11-08T05:00:28.262Z,94186.16
2022-11-08T05:01:26.096Z,94191.38
2022-11-08T05:02:22.812Z,94184.00
2022-11-08T05:03:19.358Z,94190.44
2022-11-08T05:04:15.884Z,94186.88
2022-11-08T05:05:12.364Z,94187.94
2022-11-08T05:06:13.336Z,94183.13
2022-11-08T05:07:09.809Z,94184.50
2022-11-08T05:08:06.545Z,94185.75
2022-11-08T05:09:03.113Z,94183.75
2022-11-08T05:10:02.330Z,94185.75
2022-11-08T05:11:02.218Z,94188.63
2022-11-08T05:11:58.647Z,94189.28
2022-11-08T05:12:55.968Z,94187.72
2022-11-08T05:13:52.683Z,94189.28
2022-11-08T05:14:49.231Z,94192.38
2022-11-08T05:15:45.713Z,94196.19
2022-11-08T05:16:42.187Z,94202.75
2022-11-08T05:17:38.726Z,94199.84
2022-11-08T05:18:35.177Z,94197.84
2022-11-08T05:19:50.561Z,94196.13
2022-11-08T05:21:11.511Z,94195.97
2022-11-08T05:22:26.903Z,94194.63
2022-11-08T05:23:26.065Z,94192.44
2022-11-08T05:24:22.539Z,94190.66
2022-11-08T05:25:19.026Z,94195.03
2022-11-08T05:26:16.549Z,94193.00
2022-11-08T05:27:13.009Z,94196.44
2022-11-08T05:28:09.442Z,94199.22
2022-11-08T05:29:06.102Z,94195.25
2022-11-08T05:30:02.714Z,94197.59
2022-11-08T05:30:59.286Z,94196.19
2022-11-08T05:31:55.745Z,94196.31
2022-11-08T05:32:52.931Z,94192.97
2022-11-08T05:33:49.432Z,94193.31
2022-11-08T05:34:45.870Z,94196.72
2022-11-08T05:35:42.418Z,94196.25
2022-11-08T05:36:38.865Z,94189.88
2022-11-08T05:37:35.280Z,94196.53
2022-11-08T05:38:31.966Z,94197.97
2022-11-08T05:39:32.091Z,94199.53
2022-11-08T05:40:33.130Z,94196.72
2022-11-08T05:41:30.314Z,94200.50
2022-11-08T05:42:26.822Z,94200.03
2022-11-08T05:43:23.266Z,94203.50
2022-11-08T05:44:19.693Z,94204.38
2022-11-08T05:45:16.244Z,94201.88
2022-11-08T05:46:12.886Z,94205.88
2022-11-08T05:47:09.373Z,94200.75
2022-11-08T05:48:06.177Z,94201.09
2022-11-08T05:49:03.195Z,94206.41
2022-11-08T05:49:59.684Z,94204.19
2022-11-08T05:50:56.358Z,94202.75
2022-11-08T05:51:52.830Z,94211.00
2022-11-08T05:52:49.361Z,94216.25
2022-11-08T05:53:48.594Z,94218.97
2022-11-08T05:54:45.261Z,94211.59
2022-11-08T05:55:41.857Z,94210.03
2022-11-08T05:56:38.410Z,94210.56
2022-11-08T05:57:34.912Z,94215.25
2022-11-08T05:58:32.570Z,94209.91
2022-11-08T05:59:29.154Z,94217.25
2022-11-08T06:00:25.651Z,94214.56
2022-11-08T06:01:22.232Z,94214.91
2022-11-08T06:02:18.835Z,94216.22
2022-11-08T06:03:19.703Z,94227.78
2022-11-08T06:04:19.041Z,94228.09
2022-11-08T06:05:15.604Z,94225.56
2022-11-08T06:06:16.682Z,94230.47
2022-11-08T06:07:13.158Z,94231.75
2022-11-08T06:08:09.895Z,94235.28
2022-11-08T06:09:06.349Z,94238.31
2022-11-08T06:10:03.614Z,94240.69
2022-11-08T06:11:07.419Z,94242.00
2022-11-08T06:12:04.010Z,94241.84
2022-11-08T06:13:03.682Z,94245.94
2022-11-08T06:14:00.159Z,94239.19
2022-11-08T06:14:56.643Z,94240.97
2022-11-08T06:15:53.083Z,94246.06
2022-11-08T06:16:49.518Z,94244.31
2022-11-08T06:17:45.987Z,94248.66
2022-11-08T06:18:42.614Z,94247.81
2022-11-08T06:19:39.144Z,94247.41
2022-11-08T06:20:35.582Z,94252.31
2022-11-08T06:21:32.076Z,94257.88
2022-11-08T06:22:31.007Z,94250.00
2022-11-08T06:23:28.100Z,94249.34
2022-11-08T06:24:24.582Z,94245.34
2022-11-08T06:25:21.503Z,94248.59
2022-11-08T06:26:17.927Z,94245.16
2022-11-08T06:27:14.742Z,94248.06
2022-11-08T06:28:13.207Z,94249.94
2022-11-08T06:29:09.957Z,94245.84
2022-11-08T06:30:06.759Z,94258.31
2022-11-08T06:31:03.900Z,94256.28
2022-11-08T06:32:00.451Z,94257.31
2022-11-08T06:32:58.891Z,94256.28
2022-11-08T06:33:55.372Z,94253.72
2022-11-08T06:34:51.810Z,94255.94
2022-11-08T06:35:48.278Z,94256.78
2022-11-08T06:36:44.762Z,94257.38
2022-11-08T06:37:41.217Z,94250.88
2022-11-08T06:38:37.722Z,94256.59
2022-11-08T06:39:34.262Z,94255.94
2022-11-08T06:40:32.293Z,94261.50
2022-11-08T06:41:30.037Z,94261.28
2022-11-08T06:42:26.714Z,94261.16
2022-11-08T06:43:23.555Z,94265.50
2022-11-08T06:44:20.312Z,94265.38
2022-11-08T06:45:16.898Z,94267.47
2022-11-08T06:46:13.471Z,94266.47
2022-11-08T06:47:09.986Z,94266.47
2022-11-08T06:48:07.460Z,94269.94
2022-11-08T06:49:03.940Z,94270.72
2022-11-08T06:50:00.477Z,94202.69
2022-11-08T06:50:56.917Z,94269.28
2022-11-08T06:51:53.393Z,94270.72
2022-11-08T06:52:55.596Z,94268.19
2022-11-08T06:53:52.116Z,94263.06
2022-11-08T06:54:48.598Z,94266.47
2022-11-08T06:55:45.052Z,94265.50
2022-11-08T06:56:41.539Z,94274.94
2022-11-08T06:57:38.056Z,94269.13
2022-11-08T06:58:34.687Z,94271.81
2022-11-08T06:59:31.155Z,94272.72
2022-11-08T07:00:28.103Z,94270.91
2022-11-08T07:01:24.704Z,94260.72
2022-11-08T07:02:21.389Z,94272.94
2022-11-08T07:03:18.460Z,94265.50
2022-11-08T07:04:15.197Z,94270.19
2022-11-08T07:05:12.467Z,94268.97
2022-11-08T07:06:09.019Z,94265.06
2022-11-08T07:07:05.483Z,94268.63
2022-11-08T07:08:02.377Z,94260.97
2022-11-08T07:08:58.951Z,94264.94
2022-11-08T07:09:59.490Z,94269.53
2022-11-08T07:11:00.185Z,94271.31
2022-11-08T07:11:56.798Z,94271.22
2022-11-08T07:12:59.187Z,94272.94
2022-11-08T07:13:55.718Z,94265.88
2022-11-08T07:14:52.175Z,94268.66
2022-11-08T07:15:48.738Z,94265.66
2022-11-08T07:16:45.245Z,94278.09
2022-11-08T07:17:41.829Z,94272.09
2022-11-08T07:18:38.320Z,94271.56
2022-11-08T07:19:34.865Z,94271.13
2022-11-08T07:20:31.570Z,94268.25
2022-11-08T07:21:28.033Z,94267.94
2022-11-08T07:22:25.776Z,94274.59
2022-11-08T07:23:22.587Z,94273.81
2022-11-08T07:24:19.442Z,94273.09
2022-11-08T07:25:16.069Z,94208.63
2022-11-08T07:26:13.619Z,94268.00
2022-11-08T07:27:10.073Z,94276.66
2022-11-08T07:28:08.023Z,94273.22
2022-11-08T07:29:04.484Z,94275.09
2022-11-08T07:30:01.034Z,94277.44
2022-11-08T07:30:59.225Z,94277.00
2022-11-08T07:31:55.801Z,94277.31
2022-11-08T07:32:52.668Z,94263.66
2022-11-08T07:33:49.419Z,94285.00
2022-11-08T07:34:45.864Z,94276.22
2022-11-08T07:35:44.466Z,94267.19
2022-11-08T07:36:41.033Z,94272.88
2022-11-08T07:37:37.483Z,94272.19
2022-11-08T07:38:33.975Z,94272.44
2022-11-08T07:39:30.422Z,94205.47
2022-11-08T07:40:26.938Z,94271.78
2022-11-08T07:41:23.427Z,94268.94
2022-11-08T07:42:19.879Z,94267.81
2022-11-08T07:43:16.625Z,94273.09
2022-11-08T07:44:13.146Z,94268.28
2022-11-08T07:45:10.294Z,94276.25
2022-11-08T07:46:06.825Z,94273.81
2022-11-08T07:47:03.292Z,94272.75
2022-11-08T07:48:02.643Z,94270.81
2022-11-08T07:49:00.804Z,94275.72
2022-11-08T07:49:57.275Z,94272.25
2022-11-08T07:50:54.172Z,94271.28
2022-11-08T07:51:50.648Z,94269.56
2022-11-08T07:52:49.454Z,94265.72
2022-11-08T07:53:45.983Z,94272.47
2022-11-08T07:54:42.600Z,94271.47
2022-11-08T07:55:40.214Z,94274.97
2022-11-08T07:56:36.723Z,94272.31
2022-11-08T07:57:33.304Z,94278.19
2022-11-08T07:58:29.857Z,94272.56
2022-11-08T07:59:26.373Z,94269.44
2022-11-08T08:00:22.902Z,94275.53
2022-11-08T08:01:19.371Z,94275.13
2022-11-08T08:02:16.143Z,94272.19
2022-11-08T08:03:14.117Z,94281.56
2022-11-08T08:04:12.237Z,94274.06
2022-11-08T08:05:09.066Z,94277.25
2022-11-08T08:06:05.586Z,94273.47
2022-11-08T08:07:02.106Z,94274.56
2022-11-08T08:07:59.390Z,94279.53
2022-11-08T08:08:55.870Z,94267.78
2022-11-08T08:09:52.352Z,94273.59
2022-11-08T08:10:48.884Z,94265.78
2022-11-08T08:11:45.374Z,94267.91
2022-11-08T08:12:42.029Z,94264.88
2022-11-08T08:13:38.604Z,94266.44
2022-11-08T08:14:35.134Z,94273.63
2022-11-08T08:15:32.013Z,94279.44
2022-11-08T08:16:28.492Z,94270.16
2022-11-08T08:17:24.972Z,94272.00
2022-11-08T08:18:21.778Z,94272.22
2022-11-08T08:19:18.261Z,94270.47
2022-11-08T08:20:15.063Z,94275.72
2022-11-08T08:21:11.494Z,94276.72
2022-11-08T08:22:08.258Z,94276.56
2022-11-08T08:23:05.859Z,94283.91
2022-11-08T08:24:02.292Z,94279.69
2022-11-08T08:25:02.860Z,94279.16
2022-11-08T08:26:01.451Z,94278.84
2022-11-08T08:26:57.989Z,94223.03
2022-11-08T08:27:55.535Z,94279.25
2022-11-08T08:28:52.004Z,94286.88
2022-11-08T08:29:48.548Z,94279.63
2022-11-08T08:30:45.031Z,94278.97
2022-11-08T08:31:41.462Z,94281.84
2022-11-08T08:32:37.899Z,94282.53
2022-11-08T08:33:34.828Z,94287.28
2022-11-08T08:34:31.509Z,94285.91
2022-11-08T08:35:28.008Z,94283.41
2022-11-08T08:36:24.490Z,94283.16
2022-11-08T08:37:20.945Z,94293.84
2022-11-08T08:38:17.725Z,94276.75
2022-11-08T08:39:14.415Z,94287.78
2022-11-08T08:40:11.202Z,94282.09
2022-11-08T08:41:08.033Z,94283.28
2022-11-08T08:42:04.488Z,94289.34
2022-11-08T08:43:03.230Z,94286.88
2022-11-08T08:43:59.786Z,94290.84
2022-11-08T08:44:56.280Z,94291.78
2022-11-08T08:45:52.829Z,94287.91
2022-11-08T08:46:49.310Z,94288.56
2022-11-08T08:47:50.413Z,94295.75
2022-11-08T08:48:46.962Z,94305.16
2022-11-08T08:49:43.444Z,94297.72
2022-11-08T08:50:40.160Z,94301.50
2022-11-08T08:51:36.669Z,94304.22
2022-11-08T08:52:33.104Z,94303.72
2022-11-08T08:53:29.651Z,94297.88
2022-11-08T08:54:29.397Z,94297.81
2022-11-08T08:55:28.933Z,94309.13
2022-11-08T08:56:25.472Z,94300.75
2022-11-08T08:57:21.918Z,94298.78
2022-11-08T08:58:18.902Z,94302.75
2022-11-08T09:01:48.987Z,94312.41
2022-11-08T09:02:45.451Z,94302.66
2022-11-08T09:03:42.030Z,94296.44
2022-11-08T09:04:39.210Z,94301.44
2022-11-08T09:05:35.804Z,94301.56
2022-11-08T09:06:32.499Z,94304.72
2022-11-08T09:07:29.020Z,94297.22
2022-11-08T09:08:25.761Z,94295.41
2022-11-08T09:09:22.769Z,94294.00
2022-11-08T09:10:19.307Z,94297.66
2022-11-08T09:11:15.871Z,94303.34
2022-11-08T09:12:14.630Z,94295.38
2022-11-08T09:13:11.372Z,94300.25
2022-11-08T09:14:07.861Z,94290.25
2022-11-08T09:15:05.258Z,94293.78
2022-11-08T09:16:02.936Z,94298.50
2022-11-08T09:16:59.473Z,94290.94
2022-11-08T09:17:56.753Z,94291.09
2022-11-08T09:18:53.404Z,94289.06
2022-11-08T09:19:54.394Z,94288.47
2022-11-08T09:20:56.211Z,94292.13
2022-11-08T09:21:52.858Z,94283.84
2022-11-08T09:22:49.411Z,94289.13
2022-11-08T09:23:45.847Z,94286.41
2022-11-08T09:24:42.268Z,94286.13
2022-11-08T09:25:38.726Z,94284.41
2022-11-08T09:26:35.207Z,94283.78
2022-11-08T09:27:32.127Z,94285.19
2022-11-08T09:28:31.660Z,94285.41
2022-11-08T09:29:28.264Z,94286.75
2022-11-08T09:30:24.911Z,94288.75
2022-11-08T09:31:21.350Z,94292.91
2022-11-08T09:32:28.744Z,94287.53
2022-11-08T09:33:30.232Z,94295.44
2022-11-08T09:34:26.742Z,94292.31
2022-11-08T09:35:23.418Z,94288.44
2022-11-08T09:36:19.954Z,94285.06
2022-11-08T09:37:16.402Z,94284.06
2022-11-08T09:38:12.906Z,94284.78
2022-11-08T09:39:09.362Z,94277.47
2022-11-08T09:40:06.125Z,94280.69
2022-11-08T09:41:11.695Z,94280.16
2022-11-08T09:42:11.161Z,94278.78
2022-11-08T09:43:26.154Z,94281.13
2022-11-08T09:44:41.405Z,94277.28
2022-11-08T09:45:41.906Z,94282.00
2022-11-08T09:46:43.255Z,94276.09
2022-11-08T09:47:41.089Z,94287.03
2022-11-08T09:48:40.368Z,94277.63
2022-11-08T09:49:41.278Z,94282.50
2022-11-08T09:50:39.624Z,94281.94
2022-11-08T09:51:36.909Z,94275.59
2022-11-08T09:52:34.890Z,94274.69
2022-11-08T09:53:35.429Z,94276.03
2022-11-08T09:54:35.035Z,94278.91
2022-11-08T09:55:35.502Z,94277.44
2022-11-08T09:56:34.637Z,94274.97
2022-11-08T09:57:35.813Z,94274.25
2022-11-08T09:58:32.240Z,94277.16
2022-11-08T09:59:33.392Z,94273.28
2022-11-08T10:00:29.984Z,94269.06
2022-11-08T10:01:27.565Z,94272.63
2022-11-08T10:02:24.555Z,94274.25
2022-11-08T10:03:23.515Z,94273.41
2022-11-08T10:04:22.427Z,94269.53
2022-11-08T10:05:19.529Z,94264.38
2022-11-08T10:06:31.420Z,94263.38
2022-11-08T10:07:43.147Z,94261.34
2022-11-08T10:08:42.489Z,94261.56
2022-11-08T10:09:45.156Z,94261.59
2022-11-08T10:10:55.400Z,94264.25
2022-11-08T10:11:52.159Z,94259.72
2022-11-08T10:12:53.793Z,94258.13
2022-11-08T10:14:04.742Z,94252.59
2022-11-08T10:15:13.565Z,94255.63
2022-11-08T10:16:39.455Z,94187.75
2022-11-08T10:17:54.418Z,94255.09
2022-11-08T10:19:09.623Z,94253.38
2022-11-08T10:20:33.078Z,94246.22
2022-11-08T10:21:32.533Z,94243.47
2022-11-08T10:22:35.642Z,94245.50
2022-11-08T10:23:50.641Z,94243.28
2022-11-08T10:25:05.815Z,94241.81
2022-11-08T10:26:08.219Z,94249.63
2022-11-08T10:27:11.221Z,94237.22
2022-11-08T10:28:08.506Z,94237.28
2022-11-08T10:29:09.282Z,94238.13
2022-11-08T10:30:07.728Z,94248.25
2022-11-08T10:31:04.311Z,94239.16
2022-11-08T10:32:27.335Z,94234.91
2022-11-08T10:33:29.155Z,94234.25
2022-11-08T10:34:28.990Z,94235.69
2022-11-08T10:35:31.162Z,94230.81
2022-11-08T10:36:32.046Z,94236.78
2022-11-08T10:37:28.661Z,94231.00
2022-11-08T10:38:33.603Z,94230.19
2022-11-08T10:39:34.373Z,94237.63
2022-11-08T10:40:38.608Z,94238.53
2022-11-08T10:41:38.253Z,94234.00
2022-11-08T10:42:40.359Z,94228.25
2022-11-08T10:43:47.009Z,94234.09
2022-11-08T10:44:44.017Z,94230.66
2022-11-08T10:45:40.646Z,94226.44
2022-11-08T10:46:39.839Z,94225.69
2022-11-08T10:47:37.142Z,94219.44
2022-11-08T10:48:34.390Z,94219.72
2022-11-08T10:49:33.583Z,94222.28
2022-11-08T10:50:35.161Z,94223.97
2022-11-08T10:51:31.752Z,94226.81
2022-11-08T10:52:32.328Z,94216.25
2022-11-08T10:53:30.044Z,94221.84
2022-11-08T10:54:52.716Z,94223.97
2022-11-08T10:55:51.031Z,94231.56
2022-11-08T10:56:55.144Z,94225.09
2022-11-08T10:57:51.602Z,94219.78
2022-11-08T10:58:48.064Z,94223.66
2022-11-08T10:59:45.167Z,94219.94
2022-11-08T11:00:41.648Z,94222.25
2022-11-08T11:01:44.873Z,94213.81
2022-11-08T11:02:43.135Z,94220.22
2022-11-08T11:03:39.669Z,94218.81
2022-11-08T11:04:36.141Z,94206.00
2022-11-08T11:05:36.925Z,94219.88
2022-11-08T11:06:33.525Z,94209.38
2022-11-08T11:07:34.740Z,94219.00
2022-11-08T11:08:31.642Z,94209.38
2022-11-08T11:09:28.371Z,94211.47
2022-11-08T11:10:30.521Z,94210.94
2022-11-08T11:11:35.057Z,94212.81
2022-11-08T11:12:31.514Z,94213.09
2022-11-08T11:13:28.648Z,94210.31
2022-11-08T11:14:25.351Z,94210.09
2022-11-08T11:15:21.802Z,94209.88
2022-11-08T11:16:18.293Z,94202.97
2022-11-08T11:17:16.794Z,94203.00
2022-11-08T11:18:36.177Z,94201.84
2022-11-08T11:19:32.674Z,94212.66
2022-11-08T11:20:29.549Z,94208.25
2022-11-08T11:21:26.053Z,94205.38
2022-11-08T11:22:29.906Z,94209.03
2022-11-08T11:23:37.419Z,94208.25
2022-11-08T11:24:37.285Z,94204.31
2022-11-08T11:25:33.793Z,94202.56
2022-11-08T11:26:32.368Z,94206.69
2022-11-08T11:27:31.201Z,94205.22
2022-11-08T11:28:27.867Z,94206.63